sensor_id;sensor_type;location;lat;lon;timestamp;P1;durP1;ratioP1;P2;durP2;ratioP2
63581;SDS011;49727;51.078;17.066;2023-04-25T00:06:53;5.55;;;1.50;;
63581;SDS011;49727;51.078;17.066;2023-04-25T00:21:54;3.80;;;1.47;;
63581;SDS011;49727;51.078;17.066;2023-04-25T00:36:55;3.13;;;1.17;;
63581;SDS011;49727;51.078;17.066;2023-04-25T00:51:56;1.80;;;1.23;;
63581;SDS011;49727;51.078;17.066;2023-04-25T01:06:57;2.90;;;1.33;;
63581;SDS011;49727;51.078;17.066;2023-04-25T01:21:58;3.45;;;2.10;;
63581;SDS011;49727;51.078;17.066;2023-04-25T01:36:59;4.15;;;2.30;;
63581;SDS011;49727;51.078;17.066;2023-04-25T01:52:00;5.20;;;2.43;;
63581;SDS011;49727;51.078;17.066;2023-04-25T02:07:01;4.88;;;2.42;;
63581;SDS011;49727;51.078;17.066;2023-04-25T02:22:01;6.30;;;3.03;;
63581;SDS011;49727;51.078;17.066;2023-04-25T02:37:01;4.72;;;2.78;;
63581;SDS011;49727;51.078;17.066;2023-04-25T02:52:02;4.47;;;2.80;;
63581;SDS011;49727;51.078;17.066;2023-04-25T03:07:02;5.68;;;3.50;;
63581;SDS011;49727;51.078;17.066;2023-04-25T03:22:04;5.20;;;3.30;;
63581;SDS011;49727;51.078;17.066;2023-04-25T03:37:04;7.38;;;3.13;;
63581;SDS011;49727;51.078;17.066;2023-04-25T03:52:05;5.78;;;3.40;;
63581;SDS011;49727;51.078;17.066;2023-04-25T04:07:05;7.30;;;3.65;;
63581;SDS011;49727;51.078;17.066;2023-04-25T04:22:05;8.27;;;4.05;;
63581;SDS011;49727;51.078;17.066;2023-04-25T04:37:06;7.30;;;4.00;;
63581;SDS011;49727;51.078;17.066;2023-04-25T04:52:07;12.80;;;4.20;;
63581;SDS011;49727;51.078;17.066;2023-04-25T05:07:07;8.13;;;3.88;;
63581;SDS011;49727;51.078;17.066;2023-04-25T05:22:07;6.28;;;3.85;;
63581;SDS011;49727;51.078;17.066;2023-04-25T05:37:08;4.18;;;3.08;;
63581;SDS011;49727;51.078;17.066;2023-04-25T05:52:08;5.88;;;3.63;;
63581;SDS011;49727;51.078;17.066;2023-04-25T06:07:08;4.43;;;3.38;;
63581;SDS011;49727;51.078;17.066;2023-04-25T06:22:09;6.82;;;3.67;;
63581;SDS011;49727;51.078;17.066;2023-04-25T06:37:10;5.10;;;2.93;;
63581;SDS011;49727;51.078;17.066;2023-04-25T06:52:10;11.02;;;3.08;;
63581;SDS011;49727;51.078;17.066;2023-04-25T07:07:10;5.82;;;2.50;;
63581;SDS011;49727;51.078;17.066;2023-04-25T07:22:11;4.15;;;2.35;;
63581;SDS011;49727;51.078;17.066;2023-04-25T07:37:11;4.25;;;1.85;;
63581;SDS011;49727;51.078;17.066;2023-04-25T07:52:11;4.60;;;2.10;;
63581;SDS011;49727;51.078;17.066;2023-04-25T08:07:12;9.35;;;3.03;;
63581;SDS011;49727;51.078;17.066;2023-04-25T08:22:12;6.15;;;3.08;;
63581;SDS011;49727;51.078;17.066;2023-04-25T08:37:12;6.80;;;4.35;;
63581;SDS011;49727;51.078;17.066;2023-04-25T08:52:13;5.78;;;4.20;;
63581;SDS011;49727;51.078;17.066;2023-04-25T09:07:13;9.98;;;4.90;;
63581;SDS011;49727;51.078;17.066;2023-04-25T09:22:18;6.47;;;4.83;;
63581;SDS011;49727;51.078;17.066;2023-04-25T09:37:25;6.17;;;3.40;;
63581;SDS011;49727;51.078;17.066;2023-04-25T09:52:27;4.30;;;2.70;;
63581;SDS011;49727;51.078;17.066;2023-04-25T10:07:29;8.63;;;3.30;;
63581;SDS011;49727;51.078;17.066;2023-04-25T10:22:32;7.70;;;3.90;;
63581;SDS011;49727;51.078;17.066;2023-04-25T10:37:35;3.50;;;2.57;;
63581;SDS011;49727;51.078;17.066;2023-04-25T10:52:38;5.88;;;2.80;;
63581;SDS011;49727;51.078;17.066;2023-04-25T11:07:43;6.97;;;2.50;;
63581;SDS011;49727;51.078;17.066;2023-04-25T11:23:00;3.60;;;2.10;;
63581;SDS011;49727;51.078;17.066;2023-04-25T11:38:01;5.65;;;1.75;;
63581;SDS011;49727;51.078;17.066;2023-04-25T11:53:01;4.20;;;2.25;;
63581;SDS011;49727;51.078;17.066;2023-04-25T12:08:14;3.50;;;1.55;;
63581;SDS011;49727;51.078;17.066;2023-04-25T12:23:16;4.50;;;1.50;;
63581;SDS011;49727;51.078;17.066;2023-04-25T12:38:29;2.90;;;1.40;;
63581;SDS011;49727;51.078;17.066;2023-04-25T12:53:30;2.43;;;1.10;;
63581;SDS011;49727;51.078;17.066;2023-04-25T13:08:31;3.40;;;1.33;;
63581;SDS011;49727;51.078;17.066;2023-04-25T13:23:31;3.15;;;1.38;;
63581;SDS011;49727;51.078;17.066;2023-04-25T13:38:31;3.83;;;1.58;;
63581;SDS011;49727;51.078;17.066;2023-04-25T13:53:32;3.10;;;1.27;;
63581;SDS011;49727;51.078;17.066;2023-04-25T14:08:32;5.07;;;1.60;;
63581;SDS011;49727;51.078;17.066;2023-04-25T14:23:32;5.05;;;1.23;;
63581;SDS011;49727;51.078;17.066;2023-04-25T14:38:33;1.95;;;1.20;;
63581;SDS011;49727;51.078;17.066;2023-04-25T14:53:33;3.25;;;1.35;;
63581;SDS011;49727;51.078;17.066;2023-04-25T15:08:33;5.38;;;1.70;;
63581;SDS011;49727;51.078;17.066;2023-04-25T15:23:35;3.00;;;1.23;;
63581;SDS011;49727;51.078;17.066;2023-04-25T15:38:36;3.67;;;1.67;;
63581;SDS011;49727;51.078;17.066;2023-04-25T15:53:37;5.13;;;2.00;;
63581;SDS011;49727;51.078;17.066;2023-04-25T16:08:37;7.03;;;3.00;;
63581;SDS011;49727;51.078;17.066;2023-04-25T16:23:37;6.63;;;2.72;;
63581;SDS011;49727;51.078;17.066;2023-04-25T16:38:38;6.95;;;3.10;;
63581;SDS011;49727;51.078;17.066;2023-04-25T16:53:39;3.43;;;2.30;;
63581;SDS011;49727;51.078;17.066;2023-04-25T17:08:40;3.63;;;2.30;;
63581;SDS011;49727;51.078;17.066;2023-04-25T17:23:40;3.30;;;1.73;;
63581;SDS011;49727;51.078;17.066;2023-04-25T17:38:44;4.47;;;1.90;;
63581;SDS011;49727;51.078;17.066;2023-04-25T17:53:44;8.20;;;2.25;;
63581;SDS011;49727;51.078;17.066;2023-04-25T18:08:45;8.07;;;2.50;;
63581;SDS011;49727;51.078;17.066;2023-04-25T18:23:46;9.53;;;2.90;;
63581;SDS011;49727;51.078;17.066;2023-04-25T18:38:46;8.88;;;3.40;;
63581;SDS011;49727;51.078;17.066;2023-04-25T18:53:50;7.33;;;2.57;;
63581;SDS011;49727;51.078;17.066;2023-04-25T19:08:51;10.03;;;4.07;;
63581;SDS011;49727;51.078;17.066;2023-04-25T19:23:51;7.45;;;3.58;;
63581;SDS011;49727;51.078;17.066;2023-04-25T19:38:53;9.13;;;4.30;;
63581;SDS011;49727;51.078;17.066;2023-04-25T19:53:53;9.45;;;3.47;;
63581;SDS011;49727;51.078;17.066;2023-04-25T20:08:54;8.85;;;2.70;;
63581;SDS011;49727;51.078;17.066;2023-04-25T20:23:54;10.65;;;3.05;;
63581;SDS011;49727;51.078;17.066;2023-04-25T20:38:55;10.13;;;2.85;;
63581;SDS011;49727;51.078;17.066;2023-04-25T20:53:56;10.00;;;3.10;;
63581;SDS011;49727;51.078;17.066;2023-04-25T21:08:56;9.88;;;3.20;;
63581;SDS011;49727;51.078;17.066;2023-04-25T21:23:57;10.80;;;3.38;;
63581;SDS011;49727;51.078;17.066;2023-04-25T21:38:58;10.50;;;4.25;;
63581;SDS011;49727;51.078;17.066;2023-04-25T21:53:58;7.57;;;3.65;;
63581;SDS011;49727;51.078;17.066;2023-04-25T22:09:00;13.05;;;4.03;;
63581;SDS011;49727;51.078;17.066;2023-04-25T22:24:00;9.27;;;4.45;;
63581;SDS011;49727;51.078;17.066;2023-04-25T22:39:01;14.73;;;5.20;;
63581;SDS011;49727;51.078;17.066;2023-04-25T22:54:02;10.05;;;3.70;;
63581;SDS011;49727;51.078;17.066;2023-04-25T23:09:02;12.00;;;4.05;;
63581;SDS011;49727;51.078;17.066;2023-04-25T23:24:03;7.65;;;3.25;;
63581;SDS011;49727;51.078;17.066;2023-04-25T23:39:05;8.38;;;3.85;;
63581;SDS011;49727;51.078;17.066;2023-04-25T23:54:08;11.50;;;3.23;;
